KLND/LND METAR and TAF weather

Enter ICAO airport designator
Station Type Date Time Source
KLND METAR 2021/02/25 16:53 UTC NOAA

KLND 251653Z AUTO 11003KT 10SM CLR M06/M16 A3012 RMK AO2 SLP252 T10561161


Station Type Date Time Source
KLND Decoded METAR 2021/02/25 16:53 UTC NOAA

LANDER HUNT FIELD, WY, United States (KLND) 42-49N 108-44W 1694M
Feb 25, 2021 - 11:53 AM EST / 2021.02.25 1653 UTC
Wind: from the ESE (110 degrees) at 3 MPH (3 KT):0
Visibility: 10 mile(s):0
Sky conditions: clear
Temperature: 21.9 F (-5.6 C)
Dew Point: 3.0 F (-16.1 C)
Relative Humidity: 43%
Pressure (altimeter): 30.12 in. Hg (1019 hPa)
ob: KLND 251653Z AUTO 11003KT 10SM CLR M06/M16 A3012 RMK AO2 SLP252 T10561161
cycle: 17

Station Type Date Time Source
KLND TAF 2021/02/25 12:22 UTC NOAA

TAF KLND 251120Z 2512/2612 VRB05KT P6SM SKC
FM260000 26012KT P6SM BKN200
FM260600 25009KT P6SM SCT100

Example: see airport list